sensor_id;sensor_type;location;lat;lon;timestamp;temperature;humidity
16999;DHT22;10211;49.476;11.010;2023-04-23T00:01:12;14.40;99.90
16999;DHT22;10211;49.476;11.010;2023-04-23T00:03:41;14.40;99.90
16999;DHT22;10211;49.476;11.010;2023-04-23T00:06:09;14.30;99.90
16999;DHT22;10211;49.476;11.010;2023-04-23T00:08:39;14.30;99.90
16999;DHT22;10211;49.476;11.010;2023-04-23T00:11:07;14.30;99.90
16999;DHT22;10211;49.476;11.010;2023-04-23T00:13:35;14.30;99.90
16999;DHT22;10211;49.476;11.010;2023-04-23T00:16:02;14.30;99.90
16999;DHT22;10211;49.476;11.010;2023-04-23T00:18:29;14.20;99.90
16999;DHT22;10211;49.476;11.010;2023-04-23T00:20:56;14.20;99.90
16999;DHT22;10211;49.476;11.010;2023-04-23T00:23:22;14.20;99.90
16999;DHT22;10211;49.476;11.010;2023-04-23T00:25:53;14.20;99.90
16999;DHT22;10211;49.476;11.010;2023-04-23T00:28:19;14.20;99.90
16999;DHT22;10211;49.476;11.010;2023-04-23T00:30:46;14.20;99.90
16999;DHT22;10211;49.476;11.010;2023-04-23T00:33:13;14.20;99.90
16999;DHT22;10211;49.476;11.010;2023-04-23T00:35:40;14.20;99.90
16999;DHT22;10211;49.476;11.010;2023-04-23T00:38:07;14.20;99.90
16999;DHT22;10211;49.476;11.010;2023-04-23T00:40:33;14.10;99.90
16999;DHT22;10211;49.476;11.010;2023-04-23T00:43:02;14.10;99.90
16999;DHT22;10211;49.476;11.010;2023-04-23T00:45:29;14.10;99.90
16999;DHT22;10211;49.476;11.010;2023-04-23T00:47:57;14.10;99.90
16999;DHT22;10211;49.476;11.010;2023-04-23T00:50:26;14.10;99.90
16999;DHT22;10211;49.476;11.010;2023-04-23T00:52:52;14.10;99.90
16999;DHT22;10211;49.476;11.010;2023-04-23T00:55:20;14.10;99.90
16999;DHT22;10211;49.476;11.010;2023-04-23T00:57:47;14.10;99.90
16999;DHT22;10211;49.476;11.010;2023-04-23T01:00:15;14.00;99.90
16999;DHT22;10211;49.476;11.010;2023-04-23T01:02:43;14.00;99.90
16999;DHT22;10211;49.476;11.010;2023-04-23T01:05:13;14.00;99.90
16999;DHT22;10211;49.476;11.010;2023-04-23T01:07:42;13.90;99.90
16999;DHT22;10211;49.476;11.010;2023-04-23T01:10:11;13.90;99.90
16999;DHT22;10211;49.476;11.010;2023-04-23T01:12:37;13.90;99.90
16999;DHT22;10211;49.476;11.010;2023-04-23T01:15:05;13.90;99.90
16999;DHT22;10211;49.476;11.010;2023-04-23T01:17:34;13.90;99.90
16999;DHT22;10211;49.476;11.010;2023-04-23T01:20:01;13.80;99.90
16999;DHT22;10211;49.476;11.010;2023-04-23T01:22:32;13.80;99.90
16999;DHT22;10211;49.476;11.010;2023-04-23T01:24:59;13.80;99.90
16999;DHT22;10211;49.476;11.010;2023-04-23T01:27:26;13.80;99.90
16999;DHT22;10211;49.476;11.010;2023-04-23T01:29:52;13.80;99.90
16999;DHT22;10211;49.476;11.010;2023-04-23T01:32:19;13.80;99.90
16999;DHT22;10211;49.476;11.010;2023-04-23T01:34:47;13.80;99.90
16999;DHT22;10211;49.476;11.010;2023-04-23T01:37:15;13.80;99.90
16999;DHT22;10211;49.476;11.010;2023-04-23T01:39:43;13.80;99.90
16999;DHT22;10211;49.476;11.010;2023-04-23T01:42:10;13.80;99.90
16999;DHT22;10211;49.476;11.010;2023-04-23T01:44:37;13.80;99.90
16999;DHT22;10211;49.476;11.010;2023-04-23T01:47:04;13.80;99.90
16999;DHT22;10211;49.476;11.010;2023-04-23T01:49:31;13.70;99.90
16999;DHT22;10211;49.476;11.010;2023-04-23T01:51:57;13.70;99.90
16999;DHT22;10211;49.476;11.010;2023-04-23T01:54:24;13.60;99.90
16999;DHT22;10211;49.476;11.010;2023-04-23T01:56:52;13.60;99.90
16999;DHT22;10211;49.476;11.010;2023-04-23T01:59:20;13.60;99.90
16999;DHT22;10211;49.476;11.010;2023-04-23T02:01:47;13.60;99.90
16999;DHT22;10211;49.476;11.010;2023-04-23T02:04:15;13.60;99.90
16999;DHT22;10211;49.476;11.010;2023-04-23T02:06:44;13.60;99.90
16999;DHT22;10211;49.476;11.010;2023-04-23T02:09:11;13.60;99.90
16999;DHT22;10211;49.476;11.010;2023-04-23T02:11:38;13.60;99.90
16999;DHT22;10211;49.476;11.010;2023-04-23T02:14:08;13.60;99.90
16999;DHT22;10211;49.476;11.010;2023-04-23T02:16:35;13.50;99.90
16999;DHT22;10211;49.476;11.010;2023-04-23T02:19:02;13.50;99.90
16999;DHT22;10211;49.476;11.010;2023-04-23T02:21:29;13.50;99.90
16999;DHT22;10211;49.476;11.010;2023-04-23T02:23:56;13.50;99.90
16999;DHT22;10211;49.476;11.010;2023-04-23T02:26:22;13.50;99.90
16999;DHT22;10211;49.476;11.010;2023-04-23T02:28:49;13.50;99.90
16999;DHT22;10211;49.476;11.010;2023-04-23T02:31:17;13.50;99.90
16999;DHT22;10211;49.476;11.010;2023-04-23T02:33:45;13.50;99.90
16999;DHT22;10211;49.476;11.010;2023-04-23T02:36:12;13.50;99.90
16999;DHT22;10211;49.476;11.010;2023-04-23T02:38:38;13.50;99.90
16999;DHT22;10211;49.476;11.010;2023-04-23T02:41:06;13.60;99.90
16999;DHT22;10211;49.476;11.010;2023-04-23T02:43:33;13.60;99.90
16999;DHT22;10211;49.476;11.010;2023-04-23T02:46:00;13.50;99.90
16999;DHT22;10211;49.476;11.010;2023-04-23T02:48:35;13.50;99.90
16999;DHT22;10211;49.476;11.010;2023-04-23T02:51:01;13.50;99.90
16999;DHT22;10211;49.476;11.010;2023-04-23T02:53:28;13.50;99.90
16999;DHT22;10211;49.476;11.010;2023-04-23T02:55:55;13.50;99.90
16999;DHT22;10211;49.476;11.010;2023-04-23T02:58:22;13.50;99.90
16999;DHT22;10211;49.476;11.010;2023-04-23T03:00:49;13.50;99.90
16999;DHT22;10211;49.476;11.010;2023-04-23T03:03:16;13.50;99.90
16999;DHT22;10211;49.476;11.010;2023-04-23T03:05:44;13.40;99.90
16999;DHT22;10211;49.476;11.010;2023-04-23T03:08:10;13.40;99.90
16999;DHT22;10211;49.476;11.010;2023-04-23T03:10:37;13.30;99.90
16999;DHT22;10211;49.476;11.010;2023-04-23T03:13:04;13.30;99.90
16999;DHT22;10211;49.476;11.010;2023-04-23T03:15:31;13.30;99.90
16999;DHT22;10211;49.476;11.010;2023-04-23T03:17:57;13.30;99.90
16999;DHT22;10211;49.476;11.010;2023-04-23T03:20:26;13.30;99.90
16999;DHT22;10211;49.476;11.010;2023-04-23T03:22:54;13.20;99.90
16999;DHT22;10211;49.476;11.010;2023-04-23T03:25:21;13.20;99.90
16999;DHT22;10211;49.476;11.010;2023-04-23T03:27:49;13.20;99.90
16999;DHT22;10211;49.476;11.010;2023-04-23T03:30:16;13.20;99.90
16999;DHT22;10211;49.476;11.010;2023-04-23T03:32:43;13.20;99.90
16999;DHT22;10211;49.476;11.010;2023-04-23T03:35:10;13.10;99.90
16999;DHT22;10211;49.476;11.010;2023-04-23T03:37:36;13.10;99.90
16999;DHT22;10211;49.476;11.010;2023-04-23T03:40:06;13.10;99.90
16999;DHT22;10211;49.476;11.010;2023-04-23T03:42:33;13.10;99.90
16999;DHT22;10211;49.476;11.010;2023-04-23T03:45:00;13.10;99.90
16999;DHT22;10211;49.476;11.010;2023-04-23T03:47:27;13.10;99.90
16999;DHT22;10211;49.476;11.010;2023-04-23T03:49:54;13.10;99.90
16999;DHT22;10211;49.476;11.010;2023-04-23T03:52:20;13.10;99.90
16999;DHT22;10211;49.476;11.010;2023-04-23T03:54:47;13.10;99.90
16999;DHT22;10211;49.476;11.010;2023-04-23T03:57:15;13.10;99.90
16999;DHT22;10211;49.476;11.010;2023-04-23T03:59:42;13.10;99.90
16999;DHT22;10211;49.476;11.010;2023-04-23T04:02:09;13.10;99.90
16999;DHT22;10211;49.476;11.010;2023-04-23T04:04:35;13.00;99.90
16999;DHT22;10211;49.476;11.010;2023-04-23T04:07:02;13.10;99.90
16999;DHT22;10211;49.476;11.010;2023-04-23T04:09:30;12.90;99.90
16999;DHT22;10211;49.476;11.010;2023-04-23T04:11:56;12.80;99.90
16999;DHT22;10211;49.476;11.010;2023-04-23T04:14:24;12.80;99.90
16999;DHT22;10211;49.476;11.010;2023-04-23T04:16:51;12.80;99.90
16999;DHT22;10211;49.476;11.010;2023-04-23T04:19:19;12.80;99.90
16999;DHT22;10211;49.476;11.010;2023-04-23T04:21:46;12.80;99.90
16999;DHT22;10211;49.476;11.010;2023-04-23T04:24:12;12.80;99.90
16999;DHT22;10211;49.476;11.010;2023-04-23T04:26:39;12.80;99.90
16999;DHT22;10211;49.476;11.010;2023-04-23T04:29:06;12.80;99.90
16999;DHT22;10211;49.476;11.010;2023-04-23T04:31:35;12.80;99.90
16999;DHT22;10211;49.476;11.010;2023-04-23T04:34:02;12.80;99.90
16999;DHT22;10211;49.476;11.010;2023-04-23T04:36:28;12.80;99.90
16999;DHT22;10211;49.476;11.010;2023-04-23T04:38:56;12.80;99.90
16999;DHT22;10211;49.476;11.010;2023-04-23T04:41:24;12.80;99.90
16999;DHT22;10211;49.476;11.010;2023-04-23T04:43:52;12.80;99.90
16999;DHT22;10211;49.476;11.010;2023-04-23T04:46:20;12.80;99.90
16999;DHT22;10211;49.476;11.010;2023-04-23T04:48:48;12.80;99.90
16999;DHT22;10211;49.476;11.010;2023-04-23T04:51:15;12.80;99.90
16999;DHT22;10211;49.476;11.010;2023-04-23T04:53:41;12.80;99.90
16999;DHT22;10211;49.476;11.010;2023-04-23T04:56:08;12.80;99.90
16999;DHT22;10211;49.476;11.010;2023-04-23T04:58:35;12.80;99.90
16999;DHT22;10211;49.476;11.010;2023-04-23T05:01:02;12.80;99.90
16999;DHT22;10211;49.476;11.010;2023-04-23T05:03:29;12.80;99.90
16999;DHT22;10211;49.476;11.010;2023-04-23T05:05:58;12.90;99.90
16999;DHT22;10211;49.476;11.010;2023-04-23T05:08:25;12.90;99.90
16999;DHT22;10211;49.476;11.010;2023-04-23T05:10:52;12.90;99.90
16999;DHT22;10211;49.476;11.010;2023-04-23T05:13:19;13.00;99.90
16999;DHT22;10211;49.476;11.010;2023-04-23T05:15:45;13.00;99.90
16999;DHT22;10211;49.476;11.010;2023-04-23T05:18:12;12.90;99.90
16999;DHT22;10211;49.476;11.010;2023-04-23T05:20:39;13.00;99.90
16999;DHT22;10211;49.476;11.010;2023-04-23T05:23:08;13.00;99.90
16999;DHT22;10211;49.476;11.010;2023-04-23T05:25:35;13.00;99.90
16999;DHT22;10211;49.476;11.010;2023-04-23T05:28:02;13.00;99.90
16999;DHT22;10211;49.476;11.010;2023-04-23T05:30:29;13.00;99.90
16999;DHT22;10211;49.476;11.010;2023-04-23T05:32:56;13.00;99.90
16999;DHT22;10211;49.476;11.010;2023-04-23T05:35:22;13.00;99.90
16999;DHT22;10211;49.476;11.010;2023-04-23T05:37:49;12.90;99.90
16999;DHT22;10211;49.476;11.010;2023-04-23T05:40:17;12.90;99.90
16999;DHT22;10211;49.476;11.010;2023-04-23T05:42:44;12.90;99.90
16999;DHT22;10211;49.476;11.010;2023-04-23T05:45:10;12.90;99.90
16999;DHT22;10211;49.476;11.010;2023-04-23T05:47:37;12.80;99.90
16999;DHT22;10211;49.476;11.010;2023-04-23T05:50:05;12.80;99.90
16999;DHT22;10211;49.476;11.010;2023-04-23T05:52:32;12.70;99.90
16999;DHT22;10211;49.476;11.010;2023-04-23T05:55:01;12.70;99.90
16999;DHT22;10211;49.476;11.010;2023-04-23T05:57:30;12.70;99.90
16999;DHT22;10211;49.476;11.010;2023-04-23T05:59:56;12.70;99.90
16999;DHT22;10211;49.476;11.010;2023-04-23T06:02:23;12.70;99.90
16999;DHT22;10211;49.476;11.010;2023-04-23T06:04:50;12.70;99.90
16999;DHT22;10211;49.476;11.010;2023-04-23T06:07:17;12.70;99.90
16999;DHT22;10211;49.476;11.010;2023-04-23T06:09:43;12.70;99.90
16999;DHT22;10211;49.476;11.010;2023-04-23T06:12:10;12.80;99.90
16999;DHT22;10211;49.476;11.010;2023-04-23T06:14:38;12.80;99.90
16999;DHT22;10211;49.476;11.010;2023-04-23T06:17:05;12.80;99.90
16999;DHT22;10211;49.476;11.010;2023-04-23T06:19:31;12.90;99.90
16999;DHT22;10211;49.476;11.010;2023-04-23T06:21:58;12.90;99.90
16999;DHT22;10211;49.476;11.010;2023-04-23T06:24:25;13.00;99.90
16999;DHT22;10211;49.476;11.010;2023-04-23T06:26:52;13.00;99.90
16999;DHT22;10211;49.476;11.010;2023-04-23T06:29:19;13.00;99.90
16999;DHT22;10211;49.476;11.010;2023-04-23T06:31:47;13.10;99.90
16999;DHT22;10211;49.476;11.010;2023-04-23T06:34:13;13.10;99.90
16999;DHT22;10211;49.476;11.010;2023-04-23T06:36:40;13.10;99.90
16999;DHT22;10211;49.476;11.010;2023-04-23T06:39:07;13.10;99.90
16999;DHT22;10211;49.476;11.010;2023-04-23T06:41:34;13.00;99.90
16999;DHT22;10211;49.476;11.010;2023-04-23T06:44:01;13.00;99.90
16999;DHT22;10211;49.476;11.010;2023-04-23T06:46:28;13.00;99.90
16999;DHT22;10211;49.476;11.010;2023-04-23T06:48:56;13.00;99.90
16999;DHT22;10211;49.476;11.010;2023-04-23T06:51:24;13.10;99.90
16999;DHT22;10211;49.476;11.010;2023-04-23T06:53:51;13.20;99.90
16999;DHT22;10211;49.476;11.010;2023-04-23T06:56:18;13.30;99.90
16999;DHT22;10211;49.476;11.010;2023-04-23T06:58:45;13.40;99.90
16999;DHT22;10211;49.476;11.010;2023-04-23T07:01:12;13.50;99.90
16999;DHT22;10211;49.476;11.010;2023-04-23T07:03:39;13.50;99.90
16999;DHT22;10211;49.476;11.010;2023-04-23T07:06:10;13.60;99.90
16999;DHT22;10211;49.476;11.010;2023-04-23T07:08:36;13.60;99.90
16999;DHT22;10211;49.476;11.010;2023-04-23T07:11:04;13.70;99.90
16999;DHT22;10211;49.476;11.010;2023-04-23T07:13:31;13.80;99.90
16999;DHT22;10211;49.476;11.010;2023-04-23T07:15:58;13.90;99.90
16999;DHT22;10211;49.476;11.010;2023-04-23T07:18:24;14.10;99.90
16999;DHT22;10211;49.476;11.010;2023-04-23T07:20:51;14.20;99.90
16999;DHT22;10211;49.476;11.010;2023-04-23T07:23:19;14.40;99.90
16999;DHT22;10211;49.476;11.010;2023-04-23T07:25:46;14.50;99.90
16999;DHT22;10211;49.476;11.010;2023-04-23T07:28:13;14.50;99.90
16999;DHT22;10211;49.476;11.010;2023-04-23T07:30:39;14.50;99.90
16999;DHT22;10211;49.476;11.010;2023-04-23T07:33:06;14.50;99.90
16999;DHT22;10211;49.476;11.010;2023-04-23T07:35:33;14.50;99.90
16999;DHT22;10211;49.476;11.010;2023-04-23T07:37:59;14.40;99.90
16999;DHT22;10211;49.476;11.010;2023-04-23T07:40:28;14.50;99.90
16999;DHT22;10211;49.476;11.010;2023-04-23T07:42:54;14.70;99.90
16999;DHT22;10211;49.476;11.010;2023-04-23T07:45:21;14.90;99.90
16999;DHT22;10211;49.476;11.010;2023-04-23T07:47:49;15.50;99.90
16999;DHT22;10211;49.476;11.010;2023-04-23T07:50:15;15.90;99.90
16999;DHT22;10211;49.476;11.010;2023-04-23T07:52:42;16.10;99.90
16999;DHT22;10211;49.476;11.010;2023-04-23T07:55:13;16.20;99.90
16999;DHT22;10211;49.476;11.010;2023-04-23T07:57:41;16.20;99.90
16999;DHT22;10211;49.476;11.010;2023-04-23T08:00:11;16.20;99.90
16999;DHT22;10211;49.476;11.010;2023-04-23T08:02:38;16.10;99.90
16999;DHT22;10211;49.476;11.010;2023-04-23T08:05:05;16.00;99.90
16999;DHT22;10211;49.476;11.010;2023-04-23T08:07:32;15.80;99.90
16999;DHT22;10211;49.476;11.010;2023-04-23T08:09:59;15.60;99.90
16999;DHT22;10211;49.476;11.010;2023-04-23T08:12:28;15.60;99.90
16999;DHT22;10211;49.476;11.010;2023-04-23T08:14:57;15.50;99.90
16999;DHT22;10211;49.476;11.010;2023-04-23T08:17:24;15.40;99.90
16999;DHT22;10211;49.476;11.010;2023-04-23T08:19:50;15.20;99.90
16999;DHT22;10211;49.476;11.010;2023-04-23T08:22:17;15.20;99.90
16999;DHT22;10211;49.476;11.010;2023-04-23T08:24:44;15.00;99.90
16999;DHT22;10211;49.476;11.010;2023-04-23T08:27:10;14.60;99.90
16999;DHT22;10211;49.476;11.010;2023-04-23T08:29:37;14.40;99.90
16999;DHT22;10211;49.476;11.010;2023-04-23T08:32:05;14.00;99.90
16999;DHT22;10211;49.476;11.010;2023-04-23T08:34:32;13.80;99.90
16999;DHT22;10211;49.476;11.010;2023-04-23T08:36:59;13.50;99.90
16999;DHT22;10211;49.476;11.010;2023-04-23T08:39:25;13.40;99.90
16999;DHT22;10211;49.476;11.010;2023-04-23T08:41:55;13.50;99.90
16999;DHT22;10211;49.476;11.010;2023-04-23T08:44:24;13.40;99.90
16999;DHT22;10211;49.476;11.010;2023-04-23T08:46:53;13.70;99.90
16999;DHT22;10211;49.476;11.010;2023-04-23T08:49:21;14.30;99.90
16999;DHT22;10211;49.476;11.010;2023-04-23T08:51:51;14.90;99.90
16999;DHT22;10211;49.476;11.010;2023-04-23T08:54:21;15.40;99.90
16999;DHT22;10211;49.476;11.010;2023-04-23T08:56:50;15.90;99.90
16999;DHT22;10211;49.476;11.010;2023-04-23T08:59:17;16.20;99.90
16999;DHT22;10211;49.476;11.010;2023-04-23T09:01:45;16.50;99.90
16999;DHT22;10211;49.476;11.010;2023-04-23T09:04:12;16.30;99.90
16999;DHT22;10211;49.476;11.010;2023-04-23T09:06:42;16.30;99.90
16999;DHT22;10211;49.476;11.010;2023-04-23T09:09:10;16.40;99.90
16999;DHT22;10211;49.476;11.010;2023-04-23T09:11:38;16.50;99.90
16999;DHT22;10211;49.476;11.010;2023-04-23T09:14:05;16.60;99.90
16999;DHT22;10211;49.476;11.010;2023-04-23T09:16:32;16.70;99.90
16999;DHT22;10211;49.476;11.010;2023-04-23T09:18:58;16.80;99.90
16999;DHT22;10211;49.476;11.010;2023-04-23T09:21:25;16.90;99.90
16999;DHT22;10211;49.476;11.010;2023-04-23T09:23:53;17.30;99.90
16999;DHT22;10211;49.476;11.010;2023-04-23T09:26:21;17.20;99.90
16999;DHT22;10211;49.476;11.010;2023-04-23T09:28:49;17.20;99.90
16999;DHT22;10211;49.476;11.010;2023-04-23T09:31:20;17.20;99.90
16999;DHT22;10211;49.476;11.010;2023-04-23T09:33:50;17.30;99.90
16999;DHT22;10211;49.476;11.010;2023-04-23T09:36:20;17.80;99.90
16999;DHT22;10211;49.476;11.010;2023-04-23T09:38:48;18.60;98.90
16999;DHT22;10211;49.476;11.010;2023-04-23T09:41:23;19.20;97.90
16999;DHT22;10211;49.476;11.010;2023-04-23T09:43:52;19.60;97.30
16999;DHT22;10211;49.476;11.010;2023-04-23T09:46:32;19.70;95.90
16999;DHT22;10211;49.476;11.010;2023-04-23T09:49:00;19.50;96.50
16999;DHT22;10211;49.476;11.010;2023-04-23T09:51:28;19.40;97.50
16999;DHT22;10211;49.476;11.010;2023-04-23T09:53:56;19.80;96.50
16999;DHT22;10211;49.476;11.010;2023-04-23T09:56:25;20.70;95.50
16999;DHT22;10211;49.476;11.010;2023-04-23T09:58:52;22.00;92.10
16999;DHT22;10211;49.476;11.010;2023-04-23T10:01:32;22.80;90.20
16999;DHT22;10211;49.476;11.010;2023-04-23T10:03:59;23.10;84.60
16999;DHT22;10211;49.476;11.010;2023-04-23T10:06:29;22.70;83.00
16999;DHT22;10211;49.476;11.010;2023-04-23T10:08:56;22.00;83.30
16999;DHT22;10211;49.476;11.010;2023-04-23T10:11:25;21.70;85.10
16999;DHT22;10211;49.476;11.010;2023-04-23T10:13:52;21.90;86.00
16999;DHT22;10211;49.476;11.010;2023-04-23T10:16:21;22.00;84.20
16999;DHT22;10211;49.476;11.010;2023-04-23T10:18:50;22.20;84.70
16999;DHT22;10211;49.476;11.010;2023-04-23T10:21:18;22.70;84.10
16999;DHT22;10211;49.476;11.010;2023-04-23T10:23:46;23.50;81.90
16999;DHT22;10211;49.476;11.010;2023-04-23T10:26:14;23.50;80.80
16999;DHT22;10211;49.476;11.010;2023-04-23T10:28:46;23.80;80.30
16999;DHT22;10211;49.476;11.010;2023-04-23T10:31:13;24.60;77.40
16999;DHT22;10211;49.476;11.010;2023-04-23T10:33:41;25.70;74.50
16999;DHT22;10211;49.476;11.010;2023-04-23T10:36:08;27.20;69.70
16999;DHT22;10211;49.476;11.010;2023-04-23T10:38:36;27.50;66.10
16999;DHT22;10211;49.476;11.010;2023-04-23T10:41:06;26.50;66.90
16999;DHT22;10211;49.476;11.010;2023-04-23T10:43:33;25.40;68.20
16999;DHT22;10211;49.476;11.010;2023-04-23T10:46:01;25.00;68.90
16999;DHT22;10211;49.476;11.010;2023-04-23T10:51:33;25.60;65.70
16999;DHT22;10211;49.476;11.010;2023-04-23T10:54:02;27.70;61.40
16999;DHT22;10211;49.476;11.010;2023-04-23T10:56:28;28.50;61.70
16999;DHT22;10211;49.476;11.010;2023-04-23T10:58:55;30.80;56.30
16999;DHT22;10211;49.476;11.010;2023-04-23T11:01:23;32.30;53.10
16999;DHT22;10211;49.476;11.010;2023-04-23T11:03:51;32.40;50.60
16999;DHT22;10211;49.476;11.010;2023-04-23T11:06:19;32.70;51.80
16999;DHT22;10211;49.476;11.010;2023-04-23T11:09:30;33.70;51.50
16999;DHT22;10211;49.476;11.010;2023-04-23T11:11:57;32.40;49.20
16999;DHT22;10211;49.476;11.010;2023-04-23T11:14:36;30.20;52.10
16999;DHT22;10211;49.476;11.010;2023-04-23T11:17:04;28.10;56.20
16999;DHT22;10211;49.476;11.010;2023-04-23T11:19:34;27.00;58.40
16999;DHT22;10211;49.476;11.010;2023-04-23T11:22:02;26.20;60.60
16999;DHT22;10211;49.476;11.010;2023-04-23T11:24:33;25.40;62.40
16999;DHT22;10211;49.476;11.010;2023-04-23T11:27:04;24.80;63.90
16999;DHT22;10211;49.476;11.010;2023-04-23T11:29:32;24.90;63.00
16999;DHT22;10211;49.476;11.010;2023-04-23T11:31:59;24.70;62.50
16999;DHT22;10211;49.476;11.010;2023-04-23T11:34:27;24.20;62.90
16999;DHT22;10211;49.476;11.010;2023-04-23T11:36:55;23.90;65.80
16999;DHT22;10211;49.476;11.010;2023-04-23T11:39:24;24.60;64.50
16999;DHT22;10211;49.476;11.010;2023-04-23T11:41:52;25.10;62.80
16999;DHT22;10211;49.476;11.010;2023-04-23T11:44:19;24.70;62.30
16999;DHT22;10211;49.476;11.010;2023-04-23T11:46:46;23.70;64.10
16999;DHT22;10211;49.476;11.010;2023-04-23T11:49:14;23.00;67.10
16999;DHT22;10211;49.476;11.010;2023-04-23T11:51:43;22.60;68.80
16999;DHT22;10211;49.476;11.010;2023-04-23T11:54:10;22.40;69.80
16999;DHT22;10211;49.476;11.010;2023-04-23T11:56:38;21.90;70.70
16999;DHT22;10211;49.476;11.010;2023-04-23T11:59:06;21.40;72.00
16999;DHT22;10211;49.476;11.010;2023-04-23T12:01:41;21.20;73.20
16999;DHT22;10211;49.476;11.010;2023-04-23T12:04:09;21.10;72.70
16999;DHT22;10211;49.476;11.010;2023-04-23T12:06:36;21.20;73.50
16999;DHT22;10211;49.476;11.010;2023-04-23T12:09:03;21.30;72.50
16999;DHT22;10211;49.476;11.010;2023-04-23T12:11:29;21.70;71.50
16999;DHT22;10211;49.476;11.010;2023-04-23T12:13:56;22.50;71.30
16999;DHT22;10211;49.476;11.010;2023-04-23T12:16:37;23.40;68.70
16999;DHT22;10211;49.476;11.010;2023-04-23T12:19:07;24.30;66.60
16999;DHT22;10211;49.476;11.010;2023-04-23T12:21:34;25.60;63.30
16999;DHT22;10211;49.476;11.010;2023-04-23T12:24:12;27.40;62.00
16999;DHT22;10211;49.476;11.010;2023-04-23T12:26:39;29.90;56.70
16999;DHT22;10211;49.476;11.010;2023-04-23T12:29:07;31.30;52.60
16999;DHT22;10211;49.476;11.010;2023-04-23T12:31:36;31.90;52.00
16999;DHT22;10211;49.476;11.010;2023-04-23T12:34:05;32.30;51.30
16999;DHT22;10211;49.476;11.010;2023-04-23T12:36:32;32.70;50.20
16999;DHT22;10211;49.476;11.010;2023-04-23T12:39:19;32.70;49.60
16999;DHT22;10211;49.476;11.010;2023-04-23T12:41:47;31.10;49.60
16999;DHT22;10211;49.476;11.010;2023-04-23T12:44:14;30.50;50.70
16999;DHT22;10211;49.476;11.010;2023-04-23T12:46:42;29.70;51.50
16999;DHT22;10211;49.476;11.010;2023-04-23T12:49:08;27.90;53.20
16999;DHT22;10211;49.476;11.010;2023-04-23T12:51:35;27.10;54.90
16999;DHT22;10211;49.476;11.010;2023-04-23T12:54:02;25.60;56.10
16999;DHT22;10211;49.476;11.010;2023-04-23T12:56:29;24.60;57.50
16999;DHT22;10211;49.476;11.010;2023-04-23T12:58:56;23.90;58.70
16999;DHT22;10211;49.476;11.010;2023-04-23T13:01:26;23.40;59.90
16999;DHT22;10211;49.476;11.010;2023-04-23T13:03:54;23.00;60.90
16999;DHT22;10211;49.476;11.010;2023-04-23T13:06:21;22.50;62.00
16999;DHT22;10211;49.476;11.010;2023-04-23T13:08:48;22.10;63.30
16999;DHT22;10211;49.476;11.010;2023-04-23T13:11:15;22.10;64.70
16999;DHT22;10211;49.476;11.010;2023-04-23T13:13:42;22.10;65.20
16999;DHT22;10211;49.476;11.010;2023-04-23T13:16:09;22.20;64.30
16999;DHT22;10211;49.476;11.010;2023-04-23T13:18:36;22.30;65.10
16999;DHT22;10211;49.476;11.010;2023-04-23T13:21:04;22.80;64.30
16999;DHT22;10211;49.476;11.010;2023-04-23T13:23:30;23.00;64.00
16999;DHT22;10211;49.476;11.010;2023-04-23T13:25:57;23.00;64.30
16999;DHT22;10211;49.476;11.010;2023-04-23T13:28:24;22.90;64.30
16999;DHT22;10211;49.476;11.010;2023-04-23T13:30:51;23.00;64.30
16999;DHT22;10211;49.476;11.010;2023-04-23T13:33:17;23.30;64.20
16999;DHT22;10211;49.476;11.010;2023-04-23T13:35:45;23.30;63.70
16999;DHT22;10211;49.476;11.010;2023-04-23T13:38:13;23.10;64.40
16999;DHT22;10211;49.476;11.010;2023-04-23T13:40:40;22.90;65.20
16999;DHT22;10211;49.476;11.010;2023-04-23T13:43:07;22.50;66.10
16999;DHT22;10211;49.476;11.010;2023-04-23T13:45:34;22.10;66.90
16999;DHT22;10211;49.476;11.010;2023-04-23T13:48:00;21.70;66.70
16999;DHT22;10211;49.476;11.010;2023-04-23T13:50:29;21.50;68.30
16999;DHT22;10211;49.476;11.010;2023-04-23T13:52:56;21.80;68.70
16999;DHT22;10211;49.476;11.010;2023-04-23T13:55:24;22.00;67.20
16999;DHT22;10211;49.476;11.010;2023-04-23T13:57:50;22.00;67.80
16999;DHT22;10211;49.476;11.010;2023-04-23T14:00:19;21.60;67.00
16999;DHT22;10211;49.476;11.010;2023-04-23T14:02:45;21.30;67.90
16999;DHT22;10211;49.476;11.010;2023-04-23T14:05:14;21.00;68.80
16999;DHT22;10211;49.476;11.010;2023-04-23T14:07:41;21.00;69.50
16999;DHT22;10211;49.476;11.010;2023-04-23T14:10:08;21.10;69.80
16999;DHT22;10211;49.476;11.010;2023-04-23T14:12:37;21.00;69.10
16999;DHT22;10211;49.476;11.010;2023-04-23T14:15:05;20.90;69.40
16999;DHT22;10211;49.476;11.010;2023-04-23T14:17:32;20.90;69.60
16999;DHT22;10211;49.476;11.010;2023-04-23T14:19:58;20.90;69.90
16999;DHT22;10211;49.476;11.010;2023-04-23T14:22:25;20.80;70.40
16999;DHT22;10211;49.476;11.010;2023-04-23T14:24:56;20.80;70.60
16999;DHT22;10211;49.476;11.010;2023-04-23T14:27:26;20.80;71.20
16999;DHT22;10211;49.476;11.010;2023-04-23T14:29:57;21.50;70.80
16999;DHT22;10211;49.476;11.010;2023-04-23T14:32:29;20.90;69.80
16999;DHT22;10211;49.476;11.010;2023-04-23T14:34:56;21.00;69.70
16999;DHT22;10211;49.476;11.010;2023-04-23T14:37:23;21.10;70.00
16999;DHT22;10211;49.476;11.010;2023-04-23T14:39:49;21.00;68.50
16999;DHT22;10211;49.476;11.010;2023-04-23T14:42:16;20.90;69.10
16999;DHT22;10211;49.476;11.010;2023-04-23T14:44:43;20.80;68.90
16999;DHT22;10211;49.476;11.010;2023-04-23T14:47:11;20.80;69.00
16999;DHT22;10211;49.476;11.010;2023-04-23T14:49:39;20.90;69.60
16999;DHT22;10211;49.476;11.010;2023-04-23T14:52:06;21.00;70.00
16999;DHT22;10211;49.476;11.010;2023-04-23T14:54:32;21.00;69.80
16999;DHT22;10211;49.476;11.010;2023-04-23T14:57:01;20.90;69.80
16999;DHT22;10211;49.476;11.010;2023-04-23T14:59:27;20.80;69.30
16999;DHT22;10211;49.476;11.010;2023-04-23T15:01:54;20.60;69.30
16999;DHT22;10211;49.476;11.010;2023-04-23T15:04:22;20.40;70.40
16999;DHT22;10211;49.476;11.010;2023-04-23T15:06:49;20.50;70.10
16999;DHT22;10211;49.476;11.010;2023-04-23T15:09:16;20.60;70.10
16999;DHT22;10211;49.476;11.010;2023-04-23T15:11:43;21.10;70.50
16999;DHT22;10211;49.476;11.010;2023-04-23T15:14:18;21.00;70.10
16999;DHT22;10211;49.476;11.010;2023-04-23T15:16:45;21.20;69.40
16999;DHT22;10211;49.476;11.010;2023-04-23T15:19:12;21.20;69.90
16999;DHT22;10211;49.476;11.010;2023-04-23T15:21:40;21.10;70.40